Time;durP1;ratioP1;P1;durP2;ratioP2;P2;SDS_P1;SDS_P2;PMS_P1;PMS_P2;Temp;Humidity;BMP_temperature;BMP_pressure;BME280_temperature;BME280_humidity;BME280_pressure;Samples;Min_cycle;Max_cycle;Signal;HPM_P1;HPM_P2
2023/09/09 00:01:18;;;;;;;9.35;8.45;;;20.30;99.90;;;;;;4993788;28;20173;-69
2023/09/09 00:03:45;;;;;;;9.68;8.30;;;20.30;99.90;;;;;;4992430;28;20518;-69
2023/09/09 00:06:11;;;;;;;8.90;8.10;;;20.30;99.90;;;;;;4993547;28;20227;-69
2023/09/09 00:08:37;;;;;;;10.25;8.30;;;20.30;99.90;;;;;;4993248;28;20204;-70
2023/09/09 00:11:03;;;;;;;8.90;8.00;;;20.30;99.90;;;;;;4993480;28;20244;-70
2023/09/09 00:13:29;;;;;;;11.23;8.55;;;20.30;99.90;;;;;;4992243;28;20627;-69
2023/09/09 00:15:54;;;;;;;8.40;7.60;;;20.30;99.90;;;;;;4993400;28;20177;-70
2023/09/09 00:18:20;;;;;;;10.20;8.00;;;20.40;99.90;;;;;;4992940;28;20242;-69
2023/09/09 00:20:46;;;;;;;9.07;8.13;;;20.30;99.90;;;;;;4993814;28;20351;-69
2023/09/09 00:23:12;;;;;;;8.88;8.00;;;20.20;99.90;;;;;;4993215;28;20185;-69
2023/09/09 00:25:40;;;;;;;8.57;7.72;;;20.20;99.90;;;;;;4993567;28;20204;-69
2023/09/09 00:28:06;;;;;;;9.00;8.07;;;20.20;99.90;;;;;;4992812;28;20223;-69
2023/09/09 00:30:32;;;;;;;9.18;8.27;;;20.20;99.90;;;;;;4993267;28;20184;-70
2023/09/09 00:32:59;;;;;;;9.20;8.32;;;20.20;99.90;;;;;;4993007;28;20751;-70
2023/09/09 00:35:24;;;;;;;8.80;7.97;;;20.20;99.90;;;;;;4993441;28;20204;-69
2023/09/09 00:37:50;;;;;;;7.85;7.18;;;20.20;99.90;;;;;;4992671;28;20184;-69
2023/09/09 00:40:16;;;;;;;8.40;7.68;;;20.20;99.90;;;;;;4992985;28;20177;-69
2023/09/09 00:42:41;;;;;;;9.07;8.20;;;20.20;99.90;;;;;;4992831;28;20212;-70
2023/09/09 00:45:07;;;;;;;8.77;7.97;;;20.10;99.90;;;;;;4992791;28;20264;-69
2023/09/09 00:47:37;;;;;;;8.32;7.50;;;20.20;99.90;;;;;;4992664;28;20556;-70
2023/09/09 00:50:05;;;;;;;9.13;8.20;;;20.20;99.90;;;;;;4991424;28;20204;-69
2023/09/09 00:52:31;;;;;;;9.57;8.57;;;20.10;99.90;;;;;;4992784;28;20212;-70
2023/09/09 00:54:57;;;;;;;9.55;8.07;;;20.10;99.90;;;;;;4992713;28;20605;-69
2023/09/09 00:57:23;;;;;;;9.00;8.10;;;20.10;99.90;;;;;;4992677;28;20172;-69
2023/09/09 00:59:49;;;;;;;9.20;8.30;;;20.00;99.90;;;;;;4992536;28;20554;-69
2023/09/09 01:02:14;;;;;;;10.23;8.52;;;20.00;99.90;;;;;;4992425;28;20181;-69
2023/09/09 01:04:40;;;;;;;9.00;8.20;;;20.00;99.90;;;;;;4991239;28;20181;-70
2023/09/09 01:07:07;;;;;;;9.40;8.10;;;19.90;99.90;;;;;;4992361;28;20541;-69
2023/09/09 01:09:33;;;;;;;9.02;8.13;;;19.80;99.90;;;;;;4992349;28;20201;-69
2023/09/09 01:12:00;;;;;;;9.48;8.38;;;19.80;99.90;;;;;;4992392;28;20648;-69
2023/09/09 01:14:26;;;;;;;9.52;7.93;;;19.80;99.90;;;;;;4992464;28;20312;-71
2023/09/09 01:16:53;;;;;;;9.38;8.45;;;19.70;99.90;;;;;;4992465;28;20606;-70
2023/09/09 01:19:26;;;;;;;9.33;8.43;;;19.70;99.90;;;;;;4982804;28;20712;-69
2023/09/09 01:21:54;;;;;;;9.57;8.68;;;19.70;99.90;;;;;;4992396;28;20189;-69
2023/09/09 01:24:20;;;;;;;10.87;9.07;;;19.70;99.90;;;;;;4984543;28;20204;-69
2023/09/09 01:26:46;;;;;;;9.55;8.65;;;19.70;99.90;;;;;;4992144;28;20173;-69
2023/09/09 01:29:12;;;;;;;10.18;8.75;;;19.70;99.90;;;;;;4991536;28;20220;-69
2023/09/09 01:31:38;;;;;;;9.93;8.93;;;19.70;99.90;;;;;;4992204;28;20234;-69
2023/09/09 01:34:04;;;;;;;8.90;8.07;;;19.70;99.90;;;;;;4991887;28;20553;-70
2023/09/09 01:36:30;;;;;;;8.85;8.02;;;19.60;99.90;;;;;;4992075;28;20191;-72
2023/09/09 01:38:56;;;;;;;12.85;8.85;;;19.60;99.90;;;;;;4991553;28;20220;-69
2023/09/09 01:41:22;;;;;;;9.98;8.93;;;19.60;99.90;;;;;;4992108;28;20216;-69
2023/09/09 01:43:47;;;;;;;10.02;9.02;;;19.60;99.90;;;;;;4991985;28;20286;-69
2023/09/09 01:46:13;;;;;;;9.88;8.82;;;19.50;99.90;;;;;;4991790;28;20532;-69
2023/09/09 01:48:38;;;;;;;10.88;9.27;;;19.50;99.90;;;;;;4991491;28;20258;-70
2023/09/09 01:51:05;;;;;;;9.73;8.73;;;19.50;99.90;;;;;;4991797;28;20276;-69
2023/09/09 01:53:30;;;;;;;12.43;9.50;;;19.50;99.90;;;;;;4991900;28;20185;-69
2023/09/09 01:55:58;;;;;;;10.57;9.48;;;19.50;99.90;;;;;;4991752;28;20195;-69
2023/09/09 01:58:23;;;;;;;10.45;9.23;;;19.50;99.90;;;;;;4991522;28;20208;-69
2023/09/09 02:00:49;;;;;;;11.70;9.75;;;19.40;99.90;;;;;;4992056;28;20243;-72
2023/09/09 02:03:14;;;;;;;12.98;8.93;;;19.40;99.90;;;;;;4991649;28;20192;-69
2023/09/09 02:05:40;;;;;;;9.82;8.88;;;19.30;99.90;;;;;;4996886;28;20596;-69
2023/09/09 02:08:06;;;;;;;12.07;9.38;;;19.30;99.90;;;;;;4997688;28;20271;-69
2023/09/09 02:10:31;;;;;;;15.50;9.27;;;19.20;99.90;;;;;;4998107;28;20176;-71
2023/09/09 02:12:57;;;;;;;10.27;9.27;;;19.20;99.90;;;;;;4998023;28;20239;-72
2023/09/09 02:15:23;;;;;;;15.15;9.63;;;19.20;99.90;;;;;;4998237;28;20187;-69
2023/09/09 02:17:48;;;;;;;10.47;9.00;;;19.10;99.90;;;;;;4998042;28;20181;-70
2023/09/09 02:20:14;;;;;;;11.80;9.10;;;19.00;99.90;;;;;;4998477;28;20263;-69
2023/09/09 02:22:40;;;;;;;10.73;8.73;;;19.00;99.90;;;;;;4998039;28;20188;-69
2023/09/09 02:25:07;;;;;;;9.68;8.70;;;19.00;99.90;;;;;;4998083;28;20203;-70
2023/09/09 02:27:33;;;;;;;9.65;8.68;;;19.00;99.90;;;;;;4998129;28;20545;-70
2023/09/09 02:29:58;;;;;;;10.10;9.10;;;19.00;99.90;;;;;;4997901;28;20216;-69
2023/09/09 02:32:24;;;;;;;12.85;9.77;;;18.90;99.90;;;;;;4998264;28;20185;-70
2023/09/09 02:34:50;;;;;;;11.27;9.47;;;18.90;99.90;;;;;;4998091;28;20282;-70
2023/09/09 02:37:21;;;;;;;11.20;9.18;;;18.90;99.90;;;;;;4997863;28;20385;-69
2023/09/09 02:39:51;;;;;;;8.75;7.90;;;18.80;99.90;;;;;;4998095;28;20219;-70
2023/09/09 02:42:23;;;;;;;9.27;8.13;;;18.80;99.90;;;;;;4997933;28;20180;-70
2023/09/09 02:44:52;;;;;;;11.17;8.73;;;18.90;99.90;;;;;;4998072;28;20181;-69
2023/09/09 02:47:18;;;;;;;9.77;8.83;;;18.90;99.90;;;;;;4997702;28;20169;-70
2023/09/09 02:49:44;;;;;;;9.82;8.93;;;18.90;99.90;;;;;;4997981;28;20251;-70
2023/09/09 02:52:11;;;;;;;11.27;8.80;;;18.90;99.90;;;;;;4997870;28;20400;-70
2023/09/09 02:54:38;;;;;;;9.90;8.90;;;18.90;99.90;;;;;;4997884;28;20640;-69
2023/09/09 02:57:04;;;;;;;9.33;8.33;;;18.80;99.90;;;;;;4997870;28;20180;-70
2023/09/09 02:59:33;;;;;;;9.73;8.77;;;18.80;99.90;;;;;;4997577;28;20213;-70
2023/09/09 03:02:02;;;;;;;13.97;8.93;;;18.70;99.90;;;;;;4997853;28;20183;-69
2023/09/09 03:04:28;;;;;;;11.80;9.45;;;18.80;99.90;;;;;;4997821;28;20239;-69
2023/09/09 03:06:53;;;;;;;9.80;8.53;;;18.70;99.90;;;;;;4997918;28;20645;-70
2023/09/09 03:09:20;;;;;;;10.68;8.35;;;18.70;99.90;;;;;;4997429;28;20200;-70
2023/09/09 03:11:46;;;;;;;10.53;8.57;;;18.70;99.90;;;;;;4997969;28;20188;-70
2023/09/09 03:14:11;;;;;;;10.60;8.67;;;18.70;99.90;;;;;;4997649;28;20700;-70
2023/09/09 03:16:38;;;;;;;10.83;9.73;;;18.70;99.90;;;;;;4994731;28;20223;-70
2023/09/09 03:19:04;;;;;;;11.15;9.52;;;18.70;99.90;;;;;;4994494;28;20696;-70
2023/09/09 03:21:30;;;;;;;11.77;9.57;;;18.70;99.90;;;;;;4993332;28;20185;-70
2023/09/09 03:23:55;;;;;;;12.50;9.83;;;18.60;99.90;;;;;;4994718;28;20180;-69
2023/09/09 03:26:22;;;;;;;10.53;9.27;;;18.70;99.90;;;;;;4994542;28;20659;-69
2023/09/09 03:28:51;;;;;;;12.83;10.53;;;18.60;99.90;;;;;;4994093;28;20267;-69
2023/09/09 03:31:16;;;;;;;12.13;9.17;;;18.70;99.90;;;;;;4993272;28;20184;-70
2023/09/09 03:33:42;;;;;;;13.03;10.33;;;18.60;99.90;;;;;;4994526;28;20192;-70
2023/09/09 03:36:08;;;;;;;11.57;10.47;;;18.60;99.90;;;;;;4994307;28;20204;-69
2023/09/09 03:38:34;;;;;;;11.17;10.07;;;18.70;99.90;;;;;;4993972;28;20216;-70
2023/09/09 03:41:00;;;;;;;10.80;9.73;;;18.60;99.90;;;;;;4994316;28;20191;-69
2023/09/09 03:43:26;;;;;;;10.83;9.70;;;18.60;99.90;;;;;;4994263;28;20197;-70
2023/09/09 03:45:55;;;;;;;11.23;9.73;;;18.60;99.90;;;;;;4994599;28;20189;-70
2023/09/09 03:48:21;;;;;;;11.07;9.97;;;18.50;99.90;;;;;;4993721;28;20239;-70
2023/09/09 03:50:47;;;;;;;11.67;10.47;;;18.50;99.90;;;;;;4994016;28;20201;-71
2023/09/09 03:53:13;;;;;;;10.87;9.77;;;18.40;99.90;;;;;;4993987;28;20201;-69
2023/09/09 03:55:38;;;;;;;10.90;9.70;;;18.40;99.90;;;;;;4994188;28;20184;-70
2023/09/09 03:58:04;;;;;;;11.73;10.53;;;18.40;99.90;;;;;;4993844;28;20667;-69
2023/09/09 04:00:29;;;;;;;10.67;9.57;;;18.40;99.90;;;;;;4993980;28;20184;-69
2023/09/09 04:02:55;;;;;;;11.23;10.10;;;18.30;99.90;;;;;;4993923;28;20191;-69
2023/09/09 04:05:21;;;;;;;11.40;10.17;;;18.30;99.90;;;;;;4993738;28;20185;-70
2023/09/09 04:07:46;;;;;;;11.77;10.57;;;18.30;99.90;;;;;;4993661;28;20188;-69
2023/09/09 04:10:12;;;;;;;13.00;10.07;;;18.30;99.90;;;;;;4993736;28;20212;-69
2023/09/09 04:12:38;;;;;;;10.87;9.77;;;18.20;99.90;;;;;;4993748;28;20209;-69
2023/09/09 04:15:08;;;;;;;11.97;10.03;;;18.20;99.90;;;;;;4993699;28;20212;-70
2023/09/09 04:17:33;;;;;;;11.60;10.13;;;18.20;99.90;;;;;;4993430;28;20184;-70
2023/09/09 04:19:59;;;;;;;13.50;9.83;;;18.20;99.90;;;;;;4993633;28;20239;-69
2023/09/09 04:22:26;;;;;;;12.73;9.83;;;18.20;99.90;;;;;;4993292;28;20189;-70
2023/09/09 04:24:54;;;;;;;12.48;9.50;;;18.20;99.90;;;;;;4993428;28;20180;-70
2023/09/09 04:27:21;;;;;;;10.90;9.80;;;18.20;99.90;;;;;;4992830;28;20220;-70
2023/09/09 04:29:46;;;;;;;10.53;9.20;;;18.20;99.90;;;;;;4993280;28;20220;-70
2023/09/09 04:32:15;;;;;;;12.27;9.83;;;18.20;99.90;;;;;;4993267;28;20223;-70
2023/09/09 04:34:40;;;;;;;11.87;10.17;;;18.10;99.90;;;;;;4993265;28;20185;-70
2023/09/09 04:37:06;;;;;;;10.87;9.63;;;18.10;99.90;;;;;;4993320;28;20874;-69
2023/09/09 04:39:31;;;;;;;14.70;10.03;;;18.10;99.90;;;;;;4992789;28;20216;-70
2023/09/09 04:41:57;;;;;;;10.40;9.30;;;18.10;99.90;;;;;;4993284;28;20193;-70
2023/09/09 04:44:22;;;;;;;11.13;9.33;;;18.00;99.90;;;;;;4992967;28;20211;-70
2023/09/09 04:46:48;;;;;;;10.80;9.70;;;18.00;99.90;;;;;;4993075;28;20517;-70
2023/09/09 04:49:17;;;;;;;10.60;9.60;;;18.10;99.90;;;;;;4992590;28;20228;-70
2023/09/09 04:51:43;;;;;;;10.13;9.17;;;18.00;99.90;;;;;;4993138;28;20187;-70
2023/09/09 04:54:08;;;;;;;10.43;9.33;;;18.00;99.90;;;;;;4992819;28;20189;-70
2023/09/09 04:56:34;;;;;;;10.40;9.20;;;18.00;99.90;;;;;;4992977;28;20247;-70
2023/09/09 04:59:00;;;;;;;15.50;9.90;;;18.00;99.90;;;;;;4992433;28;20248;-70
2023/09/09 05:01:25;;;;;;;10.63;9.70;;;18.00;99.90;;;;;;4992721;28;20268;-69
2023/09/09 05:03:51;;;;;;;9.63;8.73;;;18.00;99.90;;;;;;4992891;28;20181;-69
2023/09/09 05:06:16;;;;;;;10.27;9.17;;;18.10;99.90;;;;;;4992632;28;20277;-70
2023/09/09 05:08:42;;;;;;;10.40;9.00;;;18.00;99.90;;;;;;4992263;28;20209;-70
2023/09/09 05:11:08;;;;;;;11.10;9.90;;;18.10;99.90;;;;;;4992614;28;20218;-70
2023/09/09 05:13:33;;;;;;;10.47;9.47;;;18.10;99.90;;;;;;4992578;28;20228;-70
2023/09/09 05:15:59;;;;;;;15.60;10.17;;;18.00;99.90;;;;;;4992637;28;20661;-69
2023/09/09 05:18:24;;;;;;;11.57;10.20;;;18.00;99.90;;;;;;4990701;28;20216;-70
2023/09/09 05:20:50;;;;;;;12.83;9.90;;;18.10;99.90;;;;;;4992256;28;20242;-69
2023/09/09 05:23:16;;;;;;;11.03;9.90;;;18.00;99.90;;;;;;4992588;28;20192;-70
2023/09/09 05:25:42;;;;;;;10.83;9.70;;;18.00;99.90;;;;;;4992275;28;20176;-70
2023/09/09 05:28:07;;;;;;;11.23;9.60;;;18.10;99.90;;;;;;4991956;28;20201;-69
2023/09/09 05:30:33;;;;;;;11.03;10.03;;;18.20;99.90;;;;;;4992139;28;20206;-69
2023/09/09 05:32:58;;;;;;;13.27;10.07;;;18.20;99.90;;;;;;4991938;28;20172;-70
2023/09/09 05:35:24;;;;;;;12.10;9.87;;;18.20;99.90;;;;;;4991976;28;20169;-70
2023/09/09 05:37:50;;;;;;;11.07;9.97;;;18.30;99.90;;;;;;4991710;28;20649;-69
2023/09/09 05:40:15;;;;;;;11.73;9.77;;;18.40;99.90;;;;;;4989747;28;20208;-70
2023/09/09 05:42:41;;;;;;;11.40;9.93;;;18.50;99.90;;;;;;4992132;28;20193;-70
2023/09/09 05:45:08;;;;;;;11.33;9.93;;;18.50;99.90;;;;;;4991921;28;20180;-69
2023/09/09 05:47:35;;;;;;;10.30;9.30;;;18.60;99.90;;;;;;4991518;28;20556;-69
2023/09/09 05:50:01;;;;;;;11.87;10.07;;;18.70;99.90;;;;;;4991809;28;20196;-69
2023/09/09 05:52:27;;;;;;;10.15;9.18;;;18.80;99.90;;;;;;4991611;28;20195;-70
2023/09/09 05:54:52;;;;;;;11.10;9.40;;;18.80;99.90;;;;;;4991666;28;20272;-69
2023/09/09 05:57:18;;;;;;;10.47;9.37;;;18.90;99.90;;;;;;4991478;28;20172;-71
2023/09/09 05:59:43;;;;;;;11.32;9.40;;;19.00;99.90;;;;;;4991595;28;20212;-70
2023/09/09 06:02:09;;;;;;;9.97;8.73;;;19.10;99.90;;;;;;4991666;28;20173;-72
2023/09/09 06:04:35;;;;;;;9.83;8.83;;;19.10;99.90;;;;;;4991932;28;20647;-70
2023/09/09 06:07:01;;;;;;;10.32;9.07;;;19.10;99.90;;;;;;4991666;28;20179;-69
2023/09/09 06:09:26;;;;;;;11.95;8.93;;;19.20;99.90;;;;;;4991409;28;20204;-70
2023/09/09 06:11:52;;;;;;;11.80;9.10;;;19.30;99.90;;;;;;4991908;28;20189;-70
2023/09/09 06:14:18;;;;;;;10.82;8.98;;;19.40;99.90;;;;;;4991685;28;20696;-70
2023/09/09 06:16:43;;;;;;;11.20;9.10;;;19.50;99.90;;;;;;4991777;28;20177;-70
2023/09/09 06:19:09;;;;;;;11.52;9.25;;;19.60;99.90;;;;;;4991132;28;20215;-70
2023/09/09 06:21:35;;;;;;;11.82;9.73;;;19.70;99.90;;;;;;4991743;28;20173;-72
2023/09/09 06:24:00;;;;;;;10.13;9.07;;;20.00;99.90;;;;;;4991828;28;20231;-70
2023/09/09 06:26:31;;;;;;;10.52;8.57;;;20.30;99.90;;;;;;4991523;28;20687;-70
2023/09/09 06:28:57;;;;;;;8.68;7.88;;;20.70;99.90;;;;;;4991206;28;20212;-71
2023/09/09 06:31:23;;;;;;;10.18;9.13;;;21.10;99.90;;;;;;4990172;28;20552;-70
2023/09/09 06:33:48;;;;;;;9.15;7.80;;;21.50;99.90;;;;;;4991423;28;20259;-70
2023/09/09 06:36:16;;;;;;;9.55;8.00;;;21.90;99.90;;;;;;4991296;28;20208;-69
2023/09/09 06:38:41;;;;;;;8.48;7.63;;;22.40;99.90;;;;;;4990906;28;20196;-70
2023/09/09 06:41:07;;;;;;;8.00;7.18;;;22.80;99.90;;;;;;4991478;28;20671;-70
2023/09/09 06:43:33;;;;;;;8.15;7.35;;;23.10;99.90;;;;;;4991323;28;20168;-69
2023/09/09 06:46:01;;;;;;;9.93;7.78;;;23.30;1.00;;;;;;4991686;28;20483;-70
2023/09/09 06:48:28;;;;;;;9.30;7.47;;;23.60;99.90;;;;;;4990956;28;20691;-70
2023/09/09 06:50:54;;;;;;;8.20;7.40;;;23.80;1.00;;;;;;4992542;28;20271;-70
2023/09/09 06:53:20;;;;;;;9.15;7.22;;;24.10;28.60;;;;;;4994867;28;20308;-70
2023/09/09 06:55:47;;;;;;;8.73;7.25;;;24.30;1.00;;;;;;4995152;28;20331;-71
2023/09/09 06:58:14;;;;;;;7.75;6.90;;;24.50;99.90;;;;;;4994483;28;20684;-70
2023/09/09 07:00:39;;;;;;;7.45;6.72;;;24.70;99.90;;;;;;4993750;28;20404;-70
2023/09/09 07:03:07;;;;;;;7.45;6.53;;;24.80;99.90;;;;;;4994833;28;20177;-70
2023/09/09 07:05:35;;;;;;;10.20;6.65;;;25.10;28.80;;;;;;4994767;28;20216;-71
2023/09/09 07:08:01;;;;;;;7.72;7.00;;;25.30;1.00;;;;;;4994721;28;20173;-70
2023/09/09 07:10:26;;;;;;;8.93;6.60;;;25.50;1.00;;;;;;4994619;28;20673;-71
2023/09/09 07:12:53;;;;;;;9.63;7.45;;;25.70;1.00;;;;;;4994658;28;20181;-70
2023/09/09 07:15:18;;;;;;;7.93;6.85;;;26.00;1.00;;;;;;4994540;28;20176;-71
2023/09/09 07:17:48;;;;;;;7.93;7.13;;;26.20;1.00;;;;;;4994296;28;20177;-71
2023/09/09 07:20:13;;;;;;;7.40;6.43;;;26.40;1.00;;;;;;4994518;28;20210;-71
2023/09/09 07:22:39;;;;;;;7.65;6.72;;;26.70;1.00;;;;;;4994471;28;20180;-71
2023/09/09 07:25:06;;;;;;;7.80;6.72;;;27.00;1.00;;;;;;4994433;28;20648;-71
2023/09/09 07:27:32;;;;;;;8.55;7.65;;;27.30;1.00;;;;;;4994036;28;20188;-71
2023/09/09 07:29:58;;;;;;;10.95;6.15;;;27.70;1.00;;;;;;4994274;28;20220;-72
2023/09/09 07:32:23;;;;;;;8.40;7.13;;;28.20;1.00;;;;;;4994194;28;20259;-71
2023/09/09 07:34:50;;;;;;;7.35;6.63;;;28.70;1.00;;;;;;4994127;28;20279;-71
2023/09/09 07:37:16;;;;;;;8.32;6.72;;;29.00;1.00;;;;;;4994071;28;20691;-71
2023/09/09 07:39:51;;;;;;;7.40;6.35;;;29.20;1.00;;;;;;4993860;28;20235;-71
2023/09/09 07:42:17;;;;;;;8.25;6.53;;;29.50;1.00;;;;;;4993020;28;20678;-71
2023/09/09 07:44:44;;;;;;;8.40;6.90;;;29.80;1.00;;;;;;4993938;28;20260;-71
2023/09/09 07:47:11;;;;;;;8.25;7.18;;;30.10;1.00;;;;;;4994020;28;20360;-71
2023/09/09 07:49:36;;;;;;;7.20;6.50;;;30.20;1.00;;;;;;4993665;28;20262;-71
2023/09/09 07:52:03;;;;;;;9.50;7.40;;;30.30;1.00;;;;;;4992734;28;20184;-71
2023/09/09 07:54:30;;;;;;;10.23;6.45;;;30.50;1.00;;;;;;4993773;28;20644;-71
2023/09/09 07:56:56;;;;;;;7.70;6.80;;;30.60;1.00;;;;;;4993747;28;20184;-71
2023/09/09 07:59:22;;;;;;;9.00;6.22;;;30.80;1.00;;;;;;4993194;28;20302;-71
2023/09/09 08:01:47;;;;;;;6.95;6.30;;;31.00;1.00;;;;;;4993761;28;20611;-71
2023/09/09 08:04:14;;;;;;;7.45;6.07;;;31.10;1.00;;;;;;4993406;28;20181;-71
2023/09/09 08:06:39;;;;;;;9.98;6.60;;;31.20;1.00;;;;;;4992811;28;20531;-71
2023/09/09 08:09:06;;;;;;;8.13;6.43;;;31.30;1.00;;;;;;4993250;28;20395;-71
2023/09/09 08:11:31;;;;;;;7.15;6.13;;;31.50;1.00;;;;;;4993641;28;20228;-71
2023/09/09 08:13:57;;;;;;;7.75;6.20;;;31.70;1.00;;;;;;4993581;28;20215;-71
2023/09/09 08:16:23;;;;;;;8.20;6.38;;;32.00;1.00;;;;;;4993424;28;20177;-72
2023/09/09 08:18:48;;;;;;;8.52;6.20;;;32.30;1.00;;;;;;4992964;28;20207;-71
2023/09/09 08:21:14;;;;;;;7.88;6.90;;;32.70;1.00;;;;;;4991742;28;20181;-71
2023/09/09 08:23:40;;;;;;;8.27;6.75;;;32.80;1.00;;;;;;4993298;28;20181;-71
2023/09/09 08:26:05;;;;;;;8.07;7.10;;;33.00;1.00;;;;;;4993434;28;20181;-70
2023/09/09 08:28:31;;;;;;;8.43;7.00;;;32.80;99.90;;;;;;4992696;28;20294;-71
2023/09/09 08:30:58;;;;;;;9.23;6.78;;;32.50;99.90;;;;;;4993151;28;20173;-72
2023/09/09 08:33:23;;;;;;;15.18;6.50;;;32.40;99.90;;;;;;4993304;28;20208;-71
2023/09/09 08:35:49;;;;;;;8.63;6.32;;;32.70;99.90;;;;;;4992920;28;20251;-71
2023/09/09 08:38:15;;;;;;;9.68;6.25;;;32.90;99.90;;;;;;4992912;28;20251;-71
2023/09/09 08:40:54;;;;;;;11.63;7.05;;;33.10;99.90;;;;;;4985066;28;20580;-71
2023/09/09 08:44:00;;;;;;;7.35;6.35;;;33.30;99.90;;;;;;4992874;28;20528;-70
2023/09/09 08:46:26;;;;;;;9.57;6.38;;;33.50;99.90;;;;;;4978814;28;20723;-71
2023/09/09 08:48:52;;;;;;;7.55;6.68;;;33.70;99.90;;;;;;4992481;28;20284;-70
2023/09/09 08:51:24;;;;;;;7.78;6.82;;;34.00;99.90;;;;;;4992884;28;20188;-71
2023/09/09 08:53:51;;;;;;;8.90;5.93;;;34.30;99.90;;;;;;4992844;28;20645;-71
2023/09/09 08:56:18;;;;;;;9.25;5.10;;;34.50;99.90;;;;;;4992685;28;20181;-72
2023/09/09 08:58:45;;;;;;;7.22;6.50;;;35.00;99.90;;;;;;4992401;28;20212;-71
2023/09/09 09:01:11;;;;;;;10.10;6.05;;;35.40;99.90;;;;;;4992588;28;20173;-71
2023/09/09 09:03:37;;;;;;;10.65;6.70;;;35.70;99.90;;;;;;4992551;28;20192;-71
2023/09/09 09:06:04;;;;;;;12.40;6.55;;;35.70;99.90;;;;;;4992781;28;20185;-71
2023/09/09 09:08:31;;;;;;;9.50;7.10;;;35.60;99.90;;;;;;4992213;28;20447;-72
2023/09/09 09:10:58;;;;;;;9.18;7.20;;;35.70;99.90;;;;;;4992404;28;20195;-71
2023/09/09 09:13:23;;;;;;;8.40;6.78;;;35.70;99.90;;;;;;4992046;28;20672;-71
2023/09/09 09:15:49;;;;;;;10.25;6.93;;;35.90;99.90;;;;;;4991805;28;20192;-70
2023/09/09 09:18:15;;;;;;;10.88;6.65;;;35.90;99.90;;;;;;4992080;28;20280;-71
2023/09/09 09:20:41;;;;;;;11.23;6.70;;;35.90;99.90;;;;;;4990971;28;20177;-71
2023/09/09 09:23:13;;;;;;;11.70;5.93;;;36.20;99.90;;;;;;4992129;28;20200;-71
2023/09/09 09:25:47;;;;;;;9.23;6.75;;;36.50;99.90;;;;;;4992204;28;20184;-72
2023/09/09 09:28:14;;;;;;;9.77;6.90;;;36.70;99.90;;;;;;4991556;28;20500;-71
2023/09/09 09:30:40;;;;;;;8.13;6.05;;;37.00;99.90;;;;;;4992433;28;20169;-72
2023/09/09 09:33:06;;;;;;;7.03;5.68;;;37.30;99.90;;;;;;4992232;28;20615;-72
2023/09/09 09:35:33;;;;;;;11.75;5.78;;;37.40;99.90;;;;;;4990782;28;20215;-72
2023/09/09 09:38:00;;;;;;;10.25;6.97;;;37.10;99.90;;;;;;4991930;28;20200;-71
2023/09/09 09:40:27;;;;;;;11.10;7.72;;;37.00;99.90;;;;;;4992022;28;20295;-71
2023/09/09 09:42:53;;;;;;;8.88;6.93;;;36.80;99.90;;;;;;4991940;28;20183;-71
2023/09/09 09:45:26;;;;;;;12.50;6.25;;;36.60;99.90;;;;;;4991874;28;20222;-71
2023/09/09 09:47:53;;;;;;;9.52;6.45;;;36.60;99.90;;;;;;4992002;28;20165;-70
2023/09/09 09:50:28;;;;;;;10.02;6.45;;;36.80;99.90;;;;;;4992088;28;20179;-71
2023/09/09 09:53:05;;;;;;;7.85;5.95;;;37.00;99.90;;;;;;4992082;28;20168;-71
2023/09/09 09:55:32;;;;;;;9.50;6.32;;;37.30;99.90;;;;;;4991936;28;20180;-71
2023/09/09 09:58:01;;;;;;;12.10;6.68;;;37.30;99.90;;;;;;4991671;28;20315;-71
2023/09/09 10:00:27;;;;;;;11.48;6.20;;;37.30;99.90;;;;;;4991967;28;20204;-70
2023/09/09 10:02:58;;;;;;;8.90;6.60;;;37.20;99.90;;;;;;4992054;28;20266;-70
2023/09/09 10:05:26;;;;;;;7.97;6.88;;;37.00;99.90;;;;;;4992073;28;20200;-70
2023/09/09 10:08:05;;;;;;;11.10;6.72;;;36.60;99.90;;;;;;4990527;28;20173;-70
2023/09/09 10:10:35;;;;;;;12.60;7.35;;;36.40;99.90;;;;;;4991738;28;20176;-70
2023/09/09 10:13:19;;;;;;;11.55;7.45;;;36.40;99.90;;;;;;4991774;28;20255;-70
2023/09/09 10:15:46;;;;;;;9.93;6.18;;;36.30;99.90;;;;;;4991761;28;20295;-70
2023/09/09 10:18:13;;;;;;;11.25;7.05;;;36.30;99.90;;;;;;4991286;28;20251;-70
2023/09/09 10:20:39;;;;;;;9.63;6.80;;;36.20;99.90;;;;;;4991549;28;20192;-70
2023/09/09 10:23:06;;;;;;;12.38;6.30;;;36.10;99.90;;;;;;4991462;28;20215;-70
2023/09/09 10:25:33;;;;;;;13.70;6.15;;;35.90;99.90;;;;;;4992154;28;20184;-71
2023/09/09 10:28:01;;;;;;;15.68;6.72;;;35.80;99.90;;;;;;4994868;28;20181;-71
2023/09/09 10:30:27;;;;;;;6.28;5.63;;;35.50;99.90;;;;;;4995270;28;20558;-70
2023/09/09 10:32:55;;;;;;;7.47;5.10;;;35.50;99.90;;;;;;4995320;28;20247;-71
2023/09/09 10:35:22;;;;;;;11.98;6.15;;;35.60;99.90;;;;;;4995446;28;20208;-71
2023/09/09 10:37:50;;;;;;;11.88;5.88;;;35.70;99.90;;;;;;4995139;28;20670;-71
2023/09/09 10:40:17;;;;;;;9.90;5.70;;;35.50;99.90;;;;;;4995159;28;20212;-70
2023/09/09 10:42:44;;;;;;;11.73;6.07;;;35.30;99.90;;;;;;4995055;28;20181;-70
2023/09/09 10:45:22;;;;;;;12.18;5.97;;;35.20;99.90;;;;;;4995011;28;20264;-71
2023/09/09 10:47:57;;;;;;;15.02;6.18;;;34.70;99.90;;;;;;4994771;28;20175;-70
2023/09/09 10:50:37;;;;;;;11.35;6.80;;;34.60;99.90;;;;;;4993755;28;20179;-71
2023/09/09 10:53:22;;;;;;;10.88;6.47;;;34.30;99.90;;;;;;4994881;28;20177;-71
2023/09/09 10:55:48;;;;;;;9.93;6.30;;;34.40;99.90;;;;;;4995206;28;20189;-70
2023/09/09 10:58:16;;;;;;;9.40;5.70;;;34.30;99.90;;;;;;4993394;28;20196;-70
2023/09/09 11:00:45;;;;;;;10.80;5.28;;;34.30;99.90;;;;;;4993491;28;20275;-70
2023/09/09 11:03:25;;;;;;;10.70;6.00;;;34.40;99.90;;;;;;4994696;28;20177;-70
2023/09/09 11:06:02;;;;;;;17.30;5.88;;;34.40;99.90;;;;;;4994791;28;20670;-70
2023/09/09 11:08:47;;;;;;;12.88;5.55;;;34.30;99.90;;;;;;4994215;28;20232;-70
2023/09/09 11:11:17;;;;;;;9.15;5.40;;;34.00;99.90;;;;;;4994551;28;20234;-74
2023/09/09 11:13:59;;;;;;;14.32;6.22;;;33.60;99.90;;;;;;4994437;28;20204;-70
2023/09/09 11:16:30;;;;;;;15.82;5.97;;;33.20;99.90;;;;;;4994845;28;20184;-70
2023/09/09 11:19:04;;;;;;;17.48;6.13;;;33.10;99.90;;;;;;4994192;28;20304;-70
2023/09/09 11:21:32;;;;;;;11.63;5.68;;;32.90;99.90;;;;;;4994117;28;20192;-70
2023/09/09 11:23:58;;;;;;;11.52;5.55;;;33.10;99.90;;;;;;4994571;28;20173;-70
2023/09/09 11:26:24;;;;;;;15.43;5.72;;;33.30;99.90;;;;;;4994426;28;20223;-71
2023/09/09 11:28:52;;;;;;;9.20;5.47;;;33.40;99.90;;;;;;4992520;28;20227;-70
2023/09/09 11:31:18;;;;;;;10.75;5.65;;;33.50;99.90;;;;;;4994237;28;20236;-70
2023/09/09 11:33:44;;;;;;;14.45;5.20;;;33.70;99.90;;;;;;4994079;28;20181;-71
2023/09/09 11:36:09;;;;;;;10.85;4.93;;;33.80;99.90;;;;;;4994307;28;20184;-71
2023/09/09 11:38:38;;;;;;;10.68;4.97;;;33.80;99.90;;;;;;4992554;28;20217;-70
2023/09/09 11:41:04;;;;;;;6.18;5.38;;;33.90;99.90;;;;;;4994094;28;20175;-72
2023/09/09 11:43:29;;;;;;;7.70;4.55;;;33.80;99.90;;;;;;4994393;28;20366;-71
2023/09/09 11:45:56;;;;;;;11.27;5.20;;;33.60;99.90;;;;;;4994127;28;20256;-71
2023/09/09 11:48:22;;;;;;;10.07;5.07;;;33.40;99.90;;;;;;4992576;28;20193;-70
2023/09/09 11:50:49;;;;;;;9.27;5.57;;;33.50;99.90;;;;;;4993793;28;20597;-71
2023/09/09 11:53:15;;;;;;;7.65;4.85;;;33.60;99.90;;;;;;4993498;28;20176;-71
2023/09/09 11:55:40;;;;;;;12.50;5.13;;;33.70;99.90;;;;;;4993359;28;20547;-70
2023/09/09 11:58:06;;;;;;;12.63;4.78;;;33.90;99.90;;;;;;4993694;28;20599;-70
2023/09/09 12:00:33;;;;;;;10.05;4.82;;;34.00;99.90;;;;;;4991969;28;20205;-71
2023/09/09 12:02:59;;;;;;;12.65;5.25;;;33.90;99.90;;;;;;4993408;28;20227;-70
2023/09/09 12:05:31;;;;;;;8.05;4.25;;;34.00;99.90;;;;;;4992229;28;20208;-71
2023/09/09 12:07:59;;;;;;;10.80;4.80;;;34.10;99.90;;;;;;4993061;28;20256;-72
2023/09/09 12:10:29;;;;;;;6.82;4.50;;;34.20;99.90;;;;;;4993724;28;20594;-72
2023/09/09 12:12:55;;;;;;;7.45;4.07;;;34.10;99.90;;;;;;4993729;28;20183;-73
2023/09/09 12:15:21;;;;;;;11.23;4.28;;;34.20;99.90;;;;;;4991876;28;20641;-73
2023/09/09 12:17:47;;;;;;;13.70;4.15;;;34.10;99.90;;;;;;4992586;28;20184;-72
2023/09/09 12:20:12;;;;;;;19.60;5.15;;;34.30;99.90;;;;;;4991766;28;20715;-73
2023/09/09 12:22:47;;;;;;;10.25;5.07;;;34.60;99.90;;;;;;4992759;28;20177;-72
2023/09/09 12:25:32;;;;;;;13.93;4.82;;;34.60;99.90;;;;;;4992825;28;20267;-72
2023/09/09 12:27:58;;;;;;;14.13;4.10;;;34.50;99.90;;;;;;4992585;28;20252;-72
2023/09/09 12:30:37;;;;;;;11.07;4.93;;;34.60;99.90;;;;;;4993052;28;20536;-72
2023/09/09 12:33:14;;;;;;;14.85;4.07;;;34.80;99.90;;;;;;4993233;28;20600;-72
2023/09/09 12:35:45;;;;;;;9.38;3.90;;;34.90;99.90;;;;;;4991754;28;20191;-73
2023/09/09 12:38:11;;;;;;;8.75;4.30;;;34.80;99.90;;;;;;4992301;28;20597;-72
2023/09/09 12:41:04;;;;;;;14.50;4.07;;;34.80;99.90;;;;;;4992761;28;20181;-72